createdAt,value
2018-09-24T00:00:53.686Z,1.60
2018-09-24T00:03:22.170Z,1.30
2018-09-24T00:05:50.561Z,1.60
2018-09-24T00:08:19.010Z,1.50
2018-09-24T00:10:47.495Z,1.50
2018-09-24T00:13:15.949Z,1.40
2018-09-24T00:15:44.487Z,1.50
2018-09-24T00:18:12.854Z,1.80
2018-09-24T00:20:41.428Z,1.40
2018-09-24T00:23:09.994Z,1.60
2018-09-24T00:25:38.491Z,1.40
2018-09-24T00:28:06.919Z,1.27
2018-09-24T00:30:35.367Z,1.70
2018-09-24T00:33:03.710Z,1.60
2018-09-24T00:35:32.217Z,1.47
2018-09-24T00:38:00.559Z,1.23
2018-09-24T00:40:28.958Z,1.57
2018-09-24T00:42:57.425Z,2.00
2018-09-24T00:45:25.788Z,1.90
2018-09-24T00:47:54.248Z,1.80
2018-09-24T00:50:22.642Z,1.97
2018-09-24T00:52:51.193Z,2.00
2018-09-24T00:55:19.824Z,1.63
2018-09-24T00:57:48.307Z,1.83
2018-09-24T01:00:16.762Z,1.73
2018-09-24T01:02:45.294Z,1.80
2018-09-24T01:05:13.683Z,1.73
2018-09-24T01:07:42.143Z,2.20
2018-09-24T01:10:10.610Z,1.83
2018-09-24T01:12:39.209Z,1.30
2018-09-24T01:15:08.711Z,1.70
2018-09-24T01:17:37.449Z,1.50
2018-09-24T01:20:06.445Z,1.53
2018-09-24T01:22:34.942Z,1.47
2018-09-24T01:25:03.306Z,1.50
2018-09-24T01:27:31.794Z,1.33
2018-09-24T01:30:00.170Z,1.60
2018-09-24T01:32:28.504Z,1.70
2018-09-24T01:34:56.926Z,2.10
2018-09-24T01:37:25.278Z,2.03
2018-09-24T01:39:53.714Z,1.70
2018-09-24T01:42:22.162Z,1.60
2018-09-24T01:44:50.554Z,1.33
2018-09-24T01:47:18.909Z,1.73
2018-09-24T01:49:47.244Z,2.00
2018-09-24T01:52:15.689Z,1.47
2018-09-24T01:54:44.226Z,1.53
2018-09-24T01:57:14.354Z,1.67
2018-09-24T01:59:47.819Z,1.90
2018-09-24T02:02:16.584Z,1.77
2018-09-24T02:04:45.102Z,1.70
2018-09-24T02:07:13.654Z,1.53
2018-09-24T02:09:42.082Z,1.80
2018-09-24T02:12:10.594Z,1.93
2018-09-24T02:14:39.095Z,1.80
2018-09-24T02:17:18.154Z,2.00
2018-09-24T02:19:47.722Z,2.27
2018-09-24T02:22:31.265Z,1.80
2018-09-24T02:25:00.350Z,2.10
2018-09-24T02:27:28.758Z,1.77
2018-09-24T02:29:57.182Z,2.23
2018-09-24T02:32:25.656Z,1.90
2018-09-24T02:34:56.275Z,2.00
2018-09-24T02:37:24.711Z,2.13
2018-09-24T02:39:53.053Z,2.23
2018-09-24T02:42:21.431Z,1.97
2018-09-24T02:44:55.665Z,2.10
2018-09-24T02:47:24.647Z,2.40
2018-09-24T02:49:52.981Z,2.20
2018-09-24T02:52:21.443Z,2.10
2018-09-24T02:54:49.885Z,2.77
2018-09-24T02:57:18.289Z,2.47
2018-09-24T02:59:47.408Z,2.60
2018-09-24T03:02:15.871Z,2.90
2018-09-24T03:04:44.275Z,2.90
2018-09-24T03:07:12.682Z,2.23
2018-09-24T03:09:41.101Z,2.77
2018-09-24T03:12:09.474Z,3.07
2018-09-24T03:14:37.927Z,2.37
2018-09-24T03:17:06.470Z,2.77
2018-09-24T03:19:34.844Z,2.87
2018-09-24T03:22:04.053Z,2.23
2018-09-24T03:24:34.477Z,2.60
2018-09-24T03:27:04.066Z,3.00
2018-09-24T03:29:32.441Z,2.60
2018-09-24T03:32:00.791Z,2.70
2018-09-24T03:34:29.140Z,2.47
2018-09-24T03:36:57.616Z,2.13
2018-09-24T03:39:26.078Z,2.57
2018-09-24T03:41:54.537Z,2.60
2018-09-24T03:44:22.886Z,2.53
2018-09-24T03:46:51.362Z,2.97
2018-09-24T03:49:19.864Z,3.20
2018-09-24T03:51:48.283Z,2.70
2018-09-24T03:54:16.692Z,2.90
2018-09-24T03:56:45.015Z,2.50
2018-09-24T03:59:13.382Z,2.97
2018-09-24T04:01:41.841Z,2.83
2018-09-24T04:04:15.634Z,3.13
2018-09-24T04:06:49.486Z,3.03
2018-09-24T04:09:23.261Z,3.03
2018-09-24T04:11:56.959Z,2.97
2018-09-24T04:14:30.636Z,2.90
2018-09-24T04:17:04.387Z,2.83
2018-09-24T04:19:38.365Z,2.70
2018-09-24T04:22:12.158Z,3.00
2018-09-24T04:24:45.882Z,3.30
2018-09-24T04:27:19.608Z,4.00
2018-09-24T04:29:53.380Z,3.17
2018-09-24T04:32:27.019Z,2.83
2018-09-24T04:35:00.726Z,3.20
2018-09-24T04:37:34.531Z,3.43
2018-09-24T04:40:08.231Z,3.57
2018-09-24T04:42:42.125Z,3.20
2018-09-24T04:45:15.824Z,3.10
2018-09-24T04:47:49.535Z,3.13
2018-09-24T04:50:23.330Z,3.77
2018-09-24T04:52:57.114Z,3.63
2018-09-24T04:55:30.914Z,3.30
2018-09-24T04:58:04.672Z,3.23
2018-09-24T05:00:38.439Z,3.77
2018-09-24T05:03:12.232Z,3.53
2018-09-24T05:05:46.050Z,3.20
2018-09-24T05:08:19.670Z,2.83
2018-09-24T05:10:53.374Z,3.20
2018-09-24T05:13:27.141Z,3.40
2018-09-24T05:16:01.047Z,3.23
2018-09-24T05:18:34.726Z,3.30
2018-09-24T05:21:08.513Z,3.20
2018-09-24T05:23:42.352Z,3.53
2018-09-24T05:26:16.194Z,3.40
2018-09-24T05:28:49.866Z,3.63
2018-09-24T05:31:23.610Z,3.50
2018-09-24T05:33:57.294Z,3.50
2018-09-24T05:36:30.953Z,3.70
2018-09-24T05:39:04.655Z,3.70
2018-09-24T05:41:38.369Z,4.10
2018-09-24T05:44:12.107Z,3.97
2018-09-24T05:46:45.969Z,4.60
2018-09-24T05:49:19.870Z,4.17
2018-09-24T05:51:53.611Z,3.80
2018-09-24T05:54:27.466Z,3.97
2018-09-24T05:57:01.037Z,4.47
2018-09-24T05:59:34.764Z,4.00
2018-09-24T06:02:08.574Z,4.70
2018-09-24T06:04:42.556Z,3.93
2018-09-24T06:07:16.282Z,4.37
2018-09-24T06:09:50.047Z,4.37
2018-09-24T06:12:23.874Z,3.27
2018-09-24T06:14:57.569Z,4.37
2018-09-24T06:17:31.243Z,4.17
2018-09-24T06:20:05.258Z,3.60
2018-09-24T06:22:39.002Z,3.60
2018-09-24T06:25:12.923Z,4.60
2018-09-24T06:27:46.863Z,4.00
2018-09-24T06:30:20.550Z,3.63
2018-09-24T06:32:54.559Z,4.00
2018-09-24T06:35:28.265Z,4.27
2018-09-24T06:38:02.160Z,4.13
2018-09-24T06:40:35.923Z,4.17
2018-09-24T06:43:09.862Z,4.20
2018-09-24T06:45:43.503Z,4.10
2018-09-24T06:48:17.215Z,3.80
2018-09-24T06:50:51.045Z,4.77
2018-09-24T06:53:24.725Z,4.20
2018-09-24T06:55:58.466Z,5.50
2018-09-24T06:58:32.135Z,4.20
2018-09-24T07:01:05.854Z,3.77
2018-09-24T07:03:39.642Z,4.93
2018-09-24T07:06:13.384Z,4.60
2018-09-24T07:08:47.156Z,4.90
2018-09-24T07:11:20.891Z,3.80
2018-09-24T07:13:54.605Z,3.57
2018-09-24T07:16:28.257Z,4.77
2018-09-24T07:19:01.979Z,4.20
2018-09-24T07:21:35.855Z,3.33
2018-09-24T07:24:09.633Z,3.30
2018-09-24T07:26:43.371Z,3.60
2018-09-24T07:29:17.031Z,3.37
2018-09-24T07:31:50.783Z,3.43
2018-09-24T07:34:24.656Z,3.00
2018-09-24T07:36:58.342Z,3.30
2018-09-24T07:39:32.066Z,3.30
2018-09-24T07:42:05.931Z,4.13
2018-09-24T07:44:39.757Z,3.23
2018-09-24T07:47:13.465Z,3.37
2018-09-24T07:49:47.374Z,2.90
2018-09-24T07:52:21.194Z,4.60
2018-09-24T07:54:54.968Z,3.80
2018-09-24T07:57:28.699Z,3.20
2018-09-24T08:00:02.703Z,3.40
2018-09-24T08:02:37.390Z,3.13
2018-09-24T08:05:11.280Z,3.43
2018-09-24T08:07:45.046Z,3.13
2018-09-24T08:10:18.627Z,3.10
2018-09-24T08:12:52.529Z,2.93
2018-09-24T08:15:26.311Z,2.90
2018-09-24T08:18:00.079Z,3.03
2018-09-24T08:20:33.809Z,2.87
2018-09-24T08:23:07.596Z,2.70
2018-09-24T08:25:41.326Z,3.40
2018-09-24T08:28:15.062Z,2.33
2018-09-24T08:30:48.939Z,2.70
2018-09-24T08:33:22.576Z,2.43
2018-09-24T08:35:56.306Z,2.90
2018-09-24T08:38:30.159Z,2.77
2018-09-24T08:41:03.858Z,2.63
2018-09-24T08:43:37.554Z,2.57
2018-09-24T08:46:11.408Z,2.33
2018-09-24T08:48:45.164Z,2.40
2018-09-24T08:51:18.935Z,2.27
2018-09-24T08:53:52.740Z,2.40
2018-09-24T08:56:26.619Z,2.27
2018-09-24T08:59:00.313Z,2.10
2018-09-24T09:01:34.062Z,1.87
2018-09-24T09:04:07.755Z,2.23
2018-09-24T09:06:41.982Z,2.20
2018-09-24T09:09:16.641Z,2.30
2018-09-24T09:11:50.406Z,1.90
2018-09-24T09:14:24.082Z,1.90
2018-09-24T09:16:57.753Z,2.70
2018-09-24T09:19:31.373Z,1.83
2018-09-24T09:22:05.065Z,1.70
2018-09-24T09:24:38.707Z,1.60
2018-09-24T09:27:12.537Z,1.73
2018-09-24T09:29:46.343Z,1.80
2018-09-24T09:32:20.154Z,1.50
2018-09-24T09:34:53.872Z,1.80
2018-09-24T09:37:28.675Z,2.00
2018-09-24T09:40:02.671Z,1.73
2018-09-24T09:42:36.493Z,1.77
2018-09-24T09:45:10.444Z,1.23
2018-09-24T09:47:44.100Z,1.60
2018-09-24T09:50:17.822Z,1.63
2018-09-24T09:52:51.502Z,1.50
2018-09-24T09:55:25.379Z,1.83
2018-09-24T09:57:59.143Z,1.20
2018-09-24T10:00:32.695Z,1.50
2018-09-24T10:03:06.481Z,1.30
2018-09-24T10:05:40.228Z,1.27
2018-09-24T10:08:14.161Z,1.40
2018-09-24T10:10:47.922Z,1.50
2018-09-24T10:13:21.717Z,1.60
2018-09-24T10:15:55.449Z,1.27
2018-09-24T10:18:29.282Z,1.10
2018-09-24T10:21:02.961Z,1.80
2018-09-24T10:23:36.724Z,1.63
2018-09-24T10:26:10.538Z,2.00
2018-09-24T10:28:44.254Z,1.70
2018-09-24T10:31:17.845Z,2.23
2018-09-24T10:33:51.746Z,2.30
2018-09-24T10:36:25.361Z,1.43
2018-09-24T10:38:59.074Z,1.60
2018-09-24T10:41:32.850Z,1.60
2018-09-24T10:44:06.712Z,1.53
2018-09-24T10:46:40.585Z,1.73
2018-09-24T10:49:14.334Z,1.57
2018-09-24T10:51:48.198Z,1.70
2018-09-24T10:54:21.904Z,1.57
2018-09-24T10:56:55.602Z,1.43
2018-09-24T10:59:29.331Z,1.50
2018-09-24T11:02:03.008Z,1.10
2018-09-24T11:04:36.641Z,1.40
2018-09-24T11:07:10.515Z,1.20
2018-09-24T11:09:44.347Z,1.27
2018-09-24T11:12:18.133Z,1.20
2018-09-24T11:14:51.955Z,1.23
2018-09-24T11:17:25.807Z,1.10
2018-09-24T11:19:59.507Z,1.03
2018-09-24T11:22:33.368Z,1.20
2018-09-24T11:25:07.098Z,1.40
2018-09-24T11:27:40.989Z,1.10
2018-09-24T11:30:14.729Z,1.20
2018-09-24T11:32:48.428Z,1.27
2018-09-24T11:35:22.077Z,1.00
2018-09-24T11:37:56.118Z,1.17
2018-09-24T11:40:29.841Z,1.27
2018-09-24T11:43:03.595Z,1.30
2018-09-24T11:45:37.424Z,1.40
2018-09-24T11:48:11.166Z,2.03
2018-09-24T11:50:45.150Z,1.23
2018-09-24T11:53:18.829Z,1.30
2018-09-24T11:55:52.541Z,1.40
2018-09-24T11:58:26.298Z,1.10
2018-09-24T12:01:00.051Z,1.50
2018-09-24T12:03:33.979Z,1.33
2018-09-24T12:06:07.833Z,1.10
2018-09-24T12:08:41.640Z,1.30
2018-09-24T12:11:15.409Z,1.30
2018-09-24T12:13:49.170Z,1.37
2018-09-24T12:16:23.046Z,1.40
2018-09-24T12:18:56.789Z,1.00
2018-09-24T12:21:30.597Z,1.23
2018-09-24T12:24:04.269Z,1.13
2018-09-24T12:26:38.028Z,1.30
2018-09-24T12:29:11.799Z,1.40
2018-09-24T12:31:45.758Z,1.10
2018-09-24T12:34:19.532Z,1.60
2018-09-24T12:36:53.223Z,1.10
2018-09-24T12:39:27.013Z,3.77
2018-09-24T12:42:00.772Z,1.90
2018-09-24T12:44:34.703Z,1.40
2018-09-24T12:47:08.418Z,1.27
2018-09-24T12:49:42.186Z,1.37
2018-09-24T12:52:15.911Z,1.20
2018-09-24T12:54:49.736Z,1.20
2018-09-24T12:57:23.514Z,1.40
2018-09-24T12:59:57.217Z,1.13
2018-09-24T13:02:31.004Z,1.20
2018-09-24T13:05:04.627Z,0.90
2018-09-24T13:07:38.417Z,0.93
2018-09-24T13:10:12.204Z,1.07
2018-09-24T13:12:45.810Z,1.10
2018-09-24T13:15:19.821Z,1.20
2018-09-24T13:17:53.543Z,1.13
2018-09-24T13:20:27.313Z,1.30
2018-09-24T13:23:00.958Z,1.27
2018-09-24T13:25:34.760Z,1.33
2018-09-24T13:28:08.698Z,1.50
2018-09-24T13:30:42.433Z,1.10
2018-09-24T13:33:16.342Z,1.20
2018-09-24T13:35:49.976Z,1.07
2018-09-24T13:38:23.673Z,1.10
2018-09-24T13:40:57.432Z,1.33
2018-09-24T13:43:31.117Z,1.03
2018-09-24T13:46:04.782Z,1.20
2018-09-24T13:48:38.604Z,1.27
2018-09-24T13:51:12.532Z,1.60
2018-09-24T13:53:46.286Z,1.40
2018-09-24T13:56:20.139Z,1.33
2018-09-24T13:58:53.988Z,1.07
2018-09-24T14:01:27.845Z,1.00
2018-09-24T14:04:01.531Z,0.97
2018-09-24T14:06:35.410Z,1.10
2018-09-24T14:09:10.407Z,1.00
2018-09-24T14:11:44.304Z,1.30
2018-09-24T14:14:18.235Z,1.10
2018-09-24T14:16:52.257Z,1.10
2018-09-24T14:19:26.019Z,1.30
2018-09-24T14:21:59.715Z,1.20
2018-09-24T14:24:33.510Z,1.20
2018-09-24T14:27:07.205Z,1.25
2018-09-24T14:29:41.191Z,1.20
2018-09-24T14:32:15.324Z,1.45
2018-09-24T14:34:49.168Z,1.30
2018-09-24T14:37:22.958Z,1.20
2018-09-24T14:39:56.946Z,1.10
2018-09-24T14:42:31.055Z,1.20
2018-09-24T14:45:05.260Z,1.20
2018-09-24T14:47:39.064Z,1.30
2018-09-24T14:50:12.910Z,1.47
2018-09-24T14:52:46.605Z,1.40
2018-09-24T14:55:20.377Z,1.25
2018-09-24T14:57:54.364Z,1.40
2018-09-24T15:00:28.217Z,1.30
2018-09-24T15:03:02.079Z,1.50
2018-09-24T15:05:35.689Z,1.32
2018-09-24T15:08:09.523Z,1.35
2018-09-24T15:10:43.259Z,1.30
2018-09-24T15:13:17.146Z,1.30
2018-09-24T15:15:50.946Z,1.10
2018-09-24T15:18:24.689Z,1.10
2018-09-24T15:20:58.408Z,1.10
2018-09-24T15:23:32.185Z,1.30
2018-09-24T15:26:06.009Z,1.73
2018-09-24T15:28:39.844Z,1.50
2018-09-24T15:31:13.646Z,1.30
2018-09-24T15:33:47.471Z,1.23
2018-09-24T15:36:21.186Z,1.37
2018-09-24T15:38:55.181Z,1.27
2018-09-24T15:41:28.878Z,1.20
2018-09-24T15:44:02.675Z,1.10
2018-09-24T15:46:36.485Z,1.00
2018-09-24T15:49:10.146Z,0.90
2018-09-24T15:51:43.935Z,1.03
2018-09-24T15:54:17.599Z,1.20
2018-09-24T15:56:51.342Z,1.50
2018-09-24T15:59:24.993Z,1.00
2018-09-24T16:01:58.779Z,1.70
2018-09-24T16:04:32.679Z,1.20
2018-09-24T16:07:06.586Z,1.17
2018-09-24T16:09:40.426Z,1.30
2018-09-24T16:12:14.155Z,1.20
2018-09-24T16:14:47.931Z,1.03
2018-09-24T16:17:21.768Z,1.10
2018-09-24T16:19:55.482Z,1.30
2018-09-24T16:22:29.270Z,0.90
2018-09-24T16:25:02.966Z,1.37
2018-09-24T16:27:36.729Z,0.93
2018-09-24T16:30:10.967Z,1.17
2018-09-24T16:32:44.843Z,1.23
2018-09-24T16:35:18.581Z,1.37
2018-09-24T16:37:52.288Z,1.30
2018-09-24T16:40:26.103Z,1.10
2018-09-24T16:43:00.023Z,1.40
2018-09-24T16:45:33.792Z,1.20
2018-09-24T16:48:07.594Z,1.37
2018-09-24T16:50:41.493Z,1.50
2018-09-24T16:53:15.221Z,1.13
2018-09-24T16:55:49.002Z,1.33
2018-09-24T16:58:22.811Z,1.67
2018-09-24T17:00:56.640Z,1.57
2018-09-24T17:03:30.585Z,1.03
2018-09-24T17:06:04.388Z,1.20
2018-09-24T17:08:38.274Z,1.30
2018-09-24T17:11:12.158Z,1.20
2018-09-24T17:13:45.860Z,1.43
2018-09-24T17:16:19.582Z,1.53
2018-09-24T17:18:53.471Z,1.20
2018-09-24T17:21:27.358Z,1.10
2018-09-24T17:24:01.262Z,1.20
2018-09-24T17:26:35.114Z,1.73
2018-09-24T17:29:08.853Z,1.23
2018-09-24T17:31:42.786Z,1.30
2018-09-24T17:34:16.497Z,1.47
2018-09-24T17:36:50.442Z,1.40
2018-09-24T17:39:24.117Z,1.47
2018-09-24T17:41:57.962Z,1.20
2018-09-24T17:44:31.800Z,1.70
2018-09-24T17:47:05.552Z,1.40
2018-09-24T17:49:39.357Z,1.37
2018-09-24T17:52:13.566Z,1.50
2018-09-24T17:54:47.321Z,2.23
2018-09-24T17:57:21.194Z,1.67
2018-09-24T17:59:54.855Z,1.53
2018-09-24T18:02:28.541Z,1.70
2018-09-24T18:05:02.219Z,1.47
2018-09-24T18:07:35.875Z,1.80
2018-09-24T18:10:09.668Z,1.90
2018-09-24T18:12:43.558Z,2.00
2018-09-24T18:15:17.152Z,1.77
2018-09-24T18:17:51.091Z,2.00
2018-09-24T18:20:24.880Z,1.93
2018-09-24T18:22:58.742Z,2.23
2018-09-24T18:25:32.662Z,2.40
2018-09-24T18:28:06.560Z,2.53
2018-09-24T18:30:40.395Z,2.20
2018-09-24T18:33:14.084Z,2.70
2018-09-24T18:35:48.217Z,2.23
2018-09-24T18:38:21.938Z,2.40
2018-09-24T18:40:55.717Z,3.20
2018-09-24T18:43:29.459Z,2.50
2018-09-24T18:46:03.179Z,2.23
2018-09-24T18:48:36.877Z,3.13
2018-09-24T18:51:10.834Z,2.00
2018-09-24T18:53:44.543Z,2.10
2018-09-24T18:56:18.477Z,2.03
2018-09-24T18:58:52.179Z,2.20
2018-09-24T19:01:25.944Z,2.50
2018-09-24T19:03:59.825Z,2.10
2018-09-24T19:06:33.731Z,2.43
2018-09-24T19:09:07.487Z,2.43
2018-09-24T19:11:41.476Z,2.10
2018-09-24T19:14:15.111Z,2.30
2018-09-24T19:16:48.833Z,3.03
2018-09-24T19:19:22.889Z,3.10
2018-09-24T19:21:56.775Z,2.27
2018-09-24T19:24:30.523Z,3.10
2018-09-24T19:27:04.266Z,2.60
2018-09-24T19:29:38.031Z,2.80
2018-09-24T19:32:12.113Z,2.67
2018-09-24T19:34:45.815Z,2.80
2018-09-24T19:37:19.606Z,2.00
2018-09-24T19:39:53.833Z,2.30
2018-09-24T19:42:27.623Z,2.93
2018-09-24T19:45:01.374Z,1.80
2018-09-24T19:47:35.131Z,2.20
2018-09-24T19:50:09.031Z,2.27
2018-09-24T19:52:42.942Z,1.90
2018-09-24T19:55:16.840Z,1.63
2018-09-24T19:57:51.522Z,3.20
2018-09-24T20:00:25.268Z,2.40
2018-09-24T20:02:59.154Z,2.33
2018-09-24T20:05:32.851Z,2.53
2018-09-24T20:08:06.721Z,2.90
2018-09-24T20:10:40.554Z,3.70
2018-09-24T20:13:16.111Z,2.90
2018-09-24T20:15:49.967Z,2.80
2018-09-24T20:18:23.862Z,2.57
2018-09-24T20:20:57.924Z,2.80
2018-09-24T20:23:32.745Z,2.80
2018-09-24T20:26:06.560Z,2.97
2018-09-24T20:28:40.542Z,2.70
2018-09-24T20:31:15.330Z,2.63
2018-09-24T20:33:51.030Z,2.63
2018-09-24T20:36:25.643Z,2.90
2018-09-24T20:38:59.628Z,3.13
2018-09-24T20:41:35.338Z,3.57
2018-09-24T20:44:09.295Z,2.70
2018-09-24T20:46:43.139Z,2.93
2018-09-24T20:49:19.282Z,3.10
2018-09-24T20:51:54.548Z,3.30
2018-09-24T20:54:29.275Z,3.47
2018-09-24T20:57:05.458Z,3.67
2018-09-24T20:59:45.263Z,3.63
2018-09-24T21:02:20.803Z,2.70
2018-09-24T21:05:01.368Z,3.57
2018-09-24T21:07:38.999Z,2.97
2018-09-24T21:10:16.125Z,3.27
2018-09-24T21:12:50.830Z,3.10
2018-09-24T21:15:30.190Z,3.20
2018-09-24T21:18:04.936Z,3.00
2018-09-24T21:20:40.607Z,3.10
2018-09-24T21:23:17.158Z,3.30
2018-09-24T21:25:52.504Z,4.20
2018-09-24T21:28:27.153Z,3.40
2018-09-24T21:31:01.577Z,3.50
2018-09-24T21:33:37.385Z,3.73
2018-09-24T21:36:12.141Z,4.20
2018-09-24T21:38:50.459Z,3.90
2018-09-24T21:41:27.379Z,4.63
2018-09-24T21:44:01.957Z,4.40
2018-09-24T21:46:37.924Z,4.80
2018-09-24T21:49:11.550Z,3.97
2018-09-24T21:51:47.265Z,4.40
2018-09-24T21:54:22.781Z,4.30
2018-09-24T21:56:58.481Z,3.60
2018-09-24T21:59:35.285Z,4.13
2018-09-24T22:02:12.301Z,4.23
2018-09-24T22:04:46.452Z,4.50
2018-09-24T22:07:23.343Z,4.40
2018-09-24T22:09:57.438Z,4.20
2018-09-24T22:12:31.646Z,3.03
2018-09-24T22:15:05.749Z,3.53
2018-09-24T22:17:40.003Z,4.20
2018-09-24T22:20:13.986Z,4.20
2018-09-24T22:22:47.538Z,4.20
2018-09-24T22:25:21.214Z,3.70
2018-09-24T22:27:54.951Z,3.80
2018-09-24T22:30:28.621Z,3.73
2018-09-24T22:33:02.399Z,3.80
2018-09-24T22:35:36.198Z,3.87
2018-09-24T22:38:09.895Z,4.40
2018-09-24T22:40:43.554Z,4.10
2018-09-24T22:43:17.290Z,3.80
2018-09-24T22:45:51.073Z,5.03
2018-09-24T22:48:24.919Z,4.10
2018-09-24T22:50:58.857Z,3.97
2018-09-24T22:53:32.526Z,3.77
2018-09-24T22:56:06.238Z,4.03
2018-09-24T22:58:40.037Z,3.90
2018-09-24T23:01:13.818Z,4.13
2018-09-24T23:03:47.574Z,4.30
2018-09-24T23:06:21.233Z,3.90
2018-09-24T23:08:54.931Z,4.03
2018-09-24T23:11:28.933Z,4.30
2018-09-24T23:14:02.611Z,4.43
2018-09-24T23:16:36.430Z,4.10
2018-09-24T23:19:10.135Z,4.40
2018-09-24T23:21:43.905Z,3.40
2018-09-24T23:24:17.647Z,4.13
2018-09-24T23:26:51.418Z,3.57
2018-09-24T23:29:25.161Z,3.83
2018-09-24T23:31:58.962Z,3.87
2018-09-24T23:34:32.719Z,3.77
2018-09-24T23:37:06.630Z,3.90
2018-09-24T23:39:40.330Z,4.60
2018-09-24T23:42:14.317Z,4.33
2018-09-24T23:44:48.074Z,4.37
2018-09-24T23:47:21.763Z,4.20
2018-09-24T23:49:55.394Z,3.20
2018-09-24T23:52:29.177Z,3.93
2018-09-24T23:55:02.984Z,3.53
2018-09-24T23:57:36.808Z,3.60
